Time;durP1;ratioP1;P1;durP2;ratioP2;P2;SDS_P1;SDS_P2;PMS_P1;PMS_P2;Temp;Humidity;BMP_temperature;BMP_pressure;BME280_temperature;BME280_humidity;BME280_pressure;Samples;Min_cycle;Max_cycle;Signal;HPM_P1;HPM_P2
2023/08/19 00:01:46;;;;;;;11.70;5.90;;;25.40;85.90;;;;;;5052878;28;20390;-77
2023/08/19 00:04:12;;;;;;;9.98;5.63;;;25.30;85.80;;;;;;5051606;28;20033;-78
2023/08/19 00:06:39;;;;;;;6.22;5.65;;;25.30;86.20;;;;;;5052740;28;20037;-78
2023/08/19 00:09:09;;;;;;;9.32;5.25;;;25.30;86.20;;;;;;5053063;28;20032;-77
2023/08/19 00:11:37;;;;;;;7.68;6.20;;;25.20;86.20;;;;;;5053019;28;20037;-77
2023/08/19 00:14:04;;;;;;;6.95;6.07;;;25.20;86.40;;;;;;5052979;28;20033;-77
2023/08/19 00:16:30;;;;;;;9.05;5.43;;;25.20;86.40;;;;;;5052711;28;20040;-77
2023/08/19 00:18:56;;;;;;;7.80;5.90;;;25.20;86.60;;;;;;5052820;28;20564;-78
2023/08/19 00:21:22;;;;;;;10.35;5.88;;;25.20;86.70;;;;;;5052430;28;20025;-77
2023/08/19 00:23:48;;;;;;;8.40;6.13;;;25.20;86.70;;;;;;5052934;28;20044;-77
2023/08/19 00:26:13;;;;;;;9.07;6.25;;;25.10;86.80;;;;;;5052719;28;20039;-76
2023/08/19 00:28:40;;;;;;;14.63;6.43;;;25.10;86.80;;;;;;5052710;28;20080;-78
2023/08/19 00:31:07;;;;;;;11.88;6.15;;;25.10;86.90;;;;;;5052328;28;20033;-77
2023/08/19 00:33:34;;;;;;;9.05;6.35;;;25.10;86.90;;;;;;5052823;28;20052;-76
2023/08/19 00:36:00;;;;;;;11.73;6.53;;;25.00;86.80;;;;;;5052373;28;20494;-78
2023/08/19 00:38:26;;;;;;;7.95;5.82;;;25.10;86.80;;;;;;5052573;28;20033;-76
2023/08/19 00:40:52;;;;;;;8.75;6.38;;;25.00;86.80;;;;;;5052636;28;20163;-77
2023/08/19 00:43:17;;;;;;;15.85;5.88;;;25.00;86.90;;;;;;5052868;28;20037;-77
2023/08/19 00:45:47;;;;;;;10.57;5.95;;;25.00;87.00;;;;;;5052455;28;20033;-76
2023/08/19 00:48:15;;;;;;;6.65;5.57;;;25.00;87.00;;;;;;5052597;28;20037;-77
2023/08/19 00:50:41;;;;;;;10.27;6.43;;;25.00;87.10;;;;;;5052199;28;20065;-77
2023/08/19 00:53:08;;;;;;;10.98;5.65;;;25.00;87.10;;;;;;5052598;28;20119;-77
2023/08/19 00:55:35;;;;;;;8.25;5.90;;;25.00;87.10;;;;;;5052508;28;20430;-77
2023/08/19 00:58:03;;;;;;;10.80;6.25;;;25.00;87.10;;;;;;5051488;28;20033;-76
2023/08/19 01:00:33;;;;;;;9.75;6.30;;;24.90;87.10;;;;;;5053727;28;20573;-76
2023/08/19 01:02:59;;;;;;;7.50;6.13;;;25.00;87.20;;;;;;5053813;28;20033;-76
2023/08/19 01:05:43;;;;;;;10.32;6.55;;;24.90;87.20;;;;;;5055432;28;20021;-76
2023/08/19 01:08:16;;;;;;;10.13;6.28;;;24.90;87.30;;;;;;5054980;28;20089;-77
2023/08/19 01:10:58;;;;;;;11.85;6.20;;;24.90;87.40;;;;;;5056147;28;20033;-78
2023/08/19 01:13:27;;;;;;;;;;;24.90;87.40;;;;;;5056300;28;20103;-77
2023/08/19 01:15:59;;;;;;;8.32;7.35;;;24.80;87.30;;;;;;5055884;28;19959;-78
2023/08/19 01:18:25;;;;;;;9.95;6.97;;;24.80;87.30;;;;;;5055938;28;20025;-77
2023/08/19 01:20:53;;;;;;;9.15;7.03;;;24.80;87.40;;;;;;5055673;28;20475;-77
2023/08/19 01:23:35;;;;;;;8.75;7.22;;;24.80;87.40;;;;;;5055671;28;20395;-77
2023/08/19 01:26:01;;;;;;;12.27;6.72;;;24.80;87.50;;;;;;5055785;28;20120;-76
2023/08/19 01:28:27;;;;;;;10.85;7.57;;;24.80;87.50;;;;;;5055624;28;20045;-78
2023/08/19 01:30:53;;;;;;;10.75;7.40;;;24.80;87.50;;;;;;5055646;28;20108;-76
2023/08/19 01:33:19;;;;;;;9.55;7.28;;;24.80;87.40;;;;;;5055791;28;20029;-78
2023/08/19 01:36:11;;;;;;;8.80;6.93;;;24.80;87.40;;;;;;5055083;28;20055;-78
2023/08/19 01:38:45;;;;;;;11.77;7.45;;;24.80;87.30;;;;;;5037645;28;20124;-78
2023/08/19 01:41:13;;;;;;;9.77;7.35;;;24.80;87.40;;;;;;5055577;28;20045;-78
2023/08/19 01:43:40;;;;;;;9.75;7.40;;;24.70;87.40;;;;;;5055762;28;20025;-77
2023/08/19 01:46:06;;;;;;;12.57;7.20;;;24.80;87.50;;;;;;5055320;28;20048;-76
2023/08/19 01:48:32;;;;;;;12.25;7.80;;;24.70;88.10;;;;;;5055438;28;20075;-77
2023/08/19 01:50:58;;;;;;;11.88;7.60;;;24.70;87.60;;;;;;5055288;28;20033;-78
2023/08/19 01:53:23;;;;;;;8.65;6.72;;;24.70;87.50;;;;;;5055363;28;20029;-77
2023/08/19 01:55:49;;;;;;;8.73;7.03;;;24.70;87.70;;;;;;5055284;28;20490;-78
2023/08/19 01:58:15;;;;;;;10.00;6.80;;;24.70;87.70;;;;;;5037686;28;20080;-78
2023/08/19 02:00:40;;;;;;;8.70;6.85;;;24.70;87.60;;;;;;5055353;28;20060;-78
2023/08/19 02:03:07;;;;;;;14.48;7.60;;;24.70;87.80;;;;;;5055194;28;20052;-77
2023/08/19 02:05:33;;;;;;;10.80;6.70;;;24.70;87.90;;;;;;5055275;28;20033;-77
2023/08/19 02:07:58;;;;;;;11.43;7.40;;;24.70;87.80;;;;;;5055227;28;20025;-78
2023/08/19 02:10:24;;;;;;;10.15;7.53;;;24.60;87.80;;;;;;5054745;28;20471;-77
2023/08/19 02:12:50;;;;;;;10.63;7.00;;;24.70;87.90;;;;;;5054736;28;20056;-77
2023/08/19 02:15:16;;;;;;;12.05;7.70;;;24.60;87.90;;;;;;5054800;28;20045;-78
2023/08/19 02:17:41;;;;;;;11.70;7.78;;;24.60;87.90;;;;;;5055034;28;20033;-77
2023/08/19 02:20:07;;;;;;;8.20;7.40;;;24.60;88.10;;;;;;5055062;28;20530;-78
2023/08/19 02:22:33;;;;;;;9.40;8.10;;;24.50;88.10;;;;;;5055019;28;20809;-77
2023/08/19 02:24:59;;;;;;;9.15;7.78;;;24.50;88.10;;;;;;5054887;28;20032;-77
2023/08/19 02:27:25;;;;;;;8.95;6.95;;;24.50;88.10;;;;;;5054628;28;20095;-76
2023/08/19 02:29:51;;;;;;;11.07;7.10;;;24.50;88.20;;;;;;5036679;28;20394;-77
2023/08/19 02:32:17;;;;;;;8.85;6.90;;;24.50;88.50;;;;;;5054668;28;20017;-76
2023/08/19 02:34:43;;;;;;;9.02;7.07;;;24.40;88.40;;;;;;5054553;28;20033;-78
2023/08/19 02:37:13;;;;;;;10.57;6.93;;;24.40;88.40;;;;;;5054488;28;20057;-77
2023/08/19 02:39:38;;;;;;;9.43;6.28;;;24.40;88.50;;;;;;5054610;28;20061;-77
2023/08/19 02:42:04;;;;;;;9.40;6.88;;;24.40;88.50;;;;;;5054833;28;20060;-76
2023/08/19 02:44:30;;;;;;;9.95;6.47;;;24.30;88.60;;;;;;5054670;28;20037;-76
2023/08/19 02:46:56;;;;;;;8.45;6.38;;;24.30;88.70;;;;;;5054758;28;20083;-77
2023/08/19 02:49:21;;;;;;;15.07;7.35;;;24.30;88.70;;;;;;5054592;28;20059;-77
2023/08/19 02:51:47;;;;;;;8.68;6.53;;;24.30;88.80;;;;;;5054709;28;20030;-76
2023/08/19 02:54:13;;;;;;;8.23;7.20;;;24.30;89.00;;;;;;5054056;28;20040;-77
2023/08/19 02:56:39;;;;;;;8.05;7.07;;;24.30;89.00;;;;;;5054193;28;20106;-76
2023/08/19 02:59:05;;;;;;;8.63;7.32;;;24.30;89.10;;;;;;5053919;28;20498;-77
2023/08/19 03:01:31;;;;;;;9.88;7.43;;;24.20;89.10;;;;;;5054033;28;20101;-77
2023/08/19 03:03:56;;;;;;;9.63;8.07;;;24.20;89.50;;;;;;5054098;28;20155;-77
2023/08/19 03:06:22;;;;;;;10.90;7.10;;;24.20;89.70;;;;;;5054174;28;20107;-78
2023/08/19 03:08:48;;;;;;;10.55;6.80;;;24.20;89.60;;;;;;5054019;28;20047;-77
2023/08/19 03:11:14;;;;;;;10.35;7.60;;;24.20;89.80;;;;;;5054236;28;20040;-78
2023/08/19 03:13:39;;;;;;;9.00;7.35;;;24.20;89.80;;;;;;5053659;28;20052;-77
2023/08/19 03:16:06;;;;;;;9.25;7.45;;;24.20;89.80;;;;;;5053827;28;20116;-77
2023/08/19 03:18:31;;;;;;;12.20;7.90;;;24.20;89.80;;;;;;5053813;28;20037;-78
2023/08/19 03:20:58;;;;;;;9.18;6.60;;;24.20;89.80;;;;;;5052096;28;20029;-76
2023/08/19 03:23:25;;;;;;;10.55;7.05;;;24.20;89.80;;;;;;5053203;28;20040;-75
2023/08/19 03:25:52;;;;;;;10.77;6.75;;;24.20;89.80;;;;;;5053254;28;20109;-78
2023/08/19 03:28:17;;;;;;;10.85;6.53;;;24.20;89.90;;;;;;5053048;28;20044;-77
2023/08/19 03:30:43;;;;;;;11.15;7.60;;;24.20;89.80;;;;;;5053004;28;20033;-77
2023/08/19 03:33:09;;;;;;;10.60;7.00;;;24.20;89.80;;;;;;5053658;28;20028;-78
2023/08/19 03:35:34;;;;;;;9.65;7.38;;;24.20;89.80;;;;;;5046659;28;20454;-78
2023/08/19 03:38:02;;;;;;;9.85;7.05;;;24.20;89.80;;;;;;5033367;28;20105;-77
2023/08/19 03:40:28;;;;;;;10.93;7.03;;;24.10;89.70;;;;;;5033375;28;20037;-75
2023/08/19 03:42:54;;;;;;;8.70;6.97;;;24.20;89.80;;;;;;5033230;28;20479;-77
2023/08/19 03:45:20;;;;;;;9.57;7.13;;;24.20;89.70;;;;;;5033214;28;20044;-77
2023/08/19 03:47:45;;;;;;;8.70;6.93;;;24.20;89.60;;;;;;5033137;28;20149;-78
2023/08/19 03:50:11;;;;;;;7.53;6.72;;;24.10;89.60;;;;;;5033060;28;20084;-78
2023/08/19 03:52:37;;;;;;;10.43;6.90;;;24.10;89.70;;;;;;5033025;28;20033;-74
2023/08/19 03:55:03;;;;;;;11.18;6.93;;;24.00;89.70;;;;;;5032626;28;20491;-77
2023/08/19 03:57:28;;;;;;;10.13;7.07;;;24.00;89.70;;;;;;5032521;28;20033;-77
2023/08/19 03:59:54;;;;;;;9.80;7.18;;;24.00;89.70;;;;;;5033051;28;20494;-77
2023/08/19 04:02:20;;;;;;;11.23;6.75;;;24.00;89.90;;;;;;5033080;28;20026;-77
2023/08/19 04:05:03;;;;;;;10.23;7.78;;;24.00;90.00;;;;;;5032953;28;20041;-77
2023/08/19 04:07:29;;;;;;;11.20;7.45;;;23.90;90.00;;;;;;5032859;28;20041;-75
2023/08/19 04:09:55;;;;;;;8.43;6.82;;;23.90;90.00;;;;;;5032620;28;20029;-78
2023/08/19 04:12:22;;;;;;;8.85;7.03;;;23.90;90.00;;;;;;5032561;28;20091;-77
2023/08/19 04:14:48;;;;;;;8.70;7.05;;;24.00;90.00;;;;;;5032818;28;20396;-77
2023/08/19 04:17:14;;;;;;;8.52;7.13;;;23.90;89.90;;;;;;5032768;28;20033;-77
2023/08/19 04:19:40;;;;;;;9.13;7.40;;;23.90;90.00;;;;;;5032945;28;20491;-77
2023/08/19 04:22:06;;;;;;;10.48;6.97;;;24.00;90.00;;;;;;5032701;28;20040;-76
2023/08/19 04:24:32;;;;;;;11.13;7.10;;;24.00;90.10;;;;;;5032462;28;20116;-77
2023/08/19 04:27:02;;;;;;;10.52;7.82;;;24.00;90.10;;;;;;5032532;28;20032;-77
2023/08/19 04:29:28;;;;;;;9.68;7.32;;;24.00;90.10;;;;;;5032625;28;20084;-76
2023/08/19 04:31:54;;;;;;;10.43;7.40;;;24.00;90.20;;;;;;5032599;28;20033;-78
2023/08/19 04:34:20;;;;;;;12.63;6.90;;;24.00;90.20;;;;;;5036366;28;20510;-77
2023/08/19 04:36:46;;;;;;;8.45;7.30;;;24.00;90.20;;;;;;5063640;28;20044;-77
2023/08/19 04:39:13;;;;;;;12.65;7.57;;;24.00;90.20;;;;;;5087760;28;20068;-77
2023/08/19 04:41:39;;;;;;;8.77;7.65;;;24.00;90.20;;;;;;5072365;28;20075;-76
2023/08/19 04:44:05;;;;;;;10.98;7.28;;;24.10;90.30;;;;;;5073422;28;20039;-76
2023/08/19 04:46:31;;;;;;;13.27;7.10;;;24.00;90.20;;;;;;5072472;28;20024;-76
2023/08/19 04:48:57;;;;;;;7.68;6.90;;;24.00;90.20;;;;;;5072304;28;20036;-77
2023/08/19 04:51:23;;;;;;;10.88;7.43;;;24.10;90.20;;;;;;5072186;28;20028;-77
2023/08/19 04:53:48;;;;;;;8.90;7.63;;;24.10;90.20;;;;;;5072683;28;20127;-76
2023/08/19 04:56:14;;;;;;;9.35;7.35;;;24.10;90.20;;;;;;5072510;28;20041;-76
2023/08/19 04:58:40;;;;;;;11.32;7.13;;;24.20;90.30;;;;;;5072283;28;20036;-77
2023/08/19 05:01:06;;;;;;;8.88;6.65;;;24.20;90.30;;;;;;5072127;28;20040;-77
2023/08/19 05:03:32;;;;;;;9.13;7.32;;;24.20;90.30;;;;;;5072222;28;20028;-78
2023/08/19 05:05:57;;;;;;;9.48;7.15;;;24.20;90.30;;;;;;5071782;28;20055;-77
2023/08/19 05:08:23;;;;;;;11.00;8.10;;;24.20;90.30;;;;;;5072166;28;20041;-78
2023/08/19 05:10:49;;;;;;;7.43;6.72;;;24.20;90.30;;;;;;5072205;28;20124;-78
2023/08/19 05:13:15;;;;;;;11.10;7.72;;;24.20;90.20;;;;;;5072313;28;20085;-78
2023/08/19 05:15:40;;;;;;;8.90;8.02;;;24.20;90.20;;;;;;5072242;28;20048;-78
2023/08/19 05:18:06;;;;;;;11.55;7.47;;;24.30;90.20;;;;;;5071696;28;20036;-78
2023/08/19 05:20:32;;;;;;;10.95;7.40;;;24.30;90.20;;;;;;5087433;28;20100;-78
2023/08/19 05:22:58;;;;;;;10.90;7.25;;;24.30;90.20;;;;;;5071691;28;20028;-78
2023/08/19 05:25:23;;;;;;;11.63;7.20;;;24.30;90.20;;;;;;5071743;28;20055;-78
2023/08/19 05:27:49;;;;;;;9.80;6.88;;;24.30;90.20;;;;;;5071654;28;20087;-78
2023/08/19 05:30:15;;;;;;;7.13;6.43;;;24.30;90.20;;;;;;5071833;28;20035;-77
2023/08/19 05:32:41;;;;;;;11.35;6.93;;;24.40;90.20;;;;;;5072258;28;20043;-77
2023/08/19 05:35:07;;;;;;;10.98;7.25;;;24.40;90.20;;;;;;5061281;28;20051;-77
2023/08/19 05:37:33;;;;;;;8.27;7.00;;;24.40;90.20;;;;;;4989622;28;20050;-78
2023/08/19 05:39:59;;;;;;;9.70;6.68;;;24.40;90.10;;;;;;4989890;28;20046;-77
2023/08/19 05:42:25;;;;;;;7.90;6.63;;;24.40;90.10;;;;;;4989688;28;20041;-75
2023/08/19 05:44:51;;;;;;;7.68;6.88;;;24.50;90.10;;;;;;4991441;28;20121;-74
2023/08/19 05:47:16;;;;;;;13.15;7.00;;;24.50;90.00;;;;;;4993203;28;20143;-75
2023/08/19 05:49:42;;;;;;;9.80;6.75;;;24.50;89.90;;;;;;4992845;28;20053;-74
2023/08/19 05:52:08;;;;;;;11.45;6.45;;;24.50;89.90;;;;;;5060119;28;20035;-73
2023/08/19 05:54:33;;;;;;;8.95;7.07;;;24.50;89.80;;;;;;4993136;28;20038;-75
2023/08/19 05:56:59;;;;;;;9.80;6.25;;;24.50;89.80;;;;;;4992825;28;20049;-73
2023/08/19 05:59:25;;;;;;;8.73;6.72;;;24.60;89.80;;;;;;4992034;28;20066;-76
2023/08/19 06:01:50;;;;;;;8.15;6.72;;;24.60;89.60;;;;;;4990805;28;20079;-74
2023/08/19 06:04:17;;;;;;;8.13;5.93;;;24.60;89.60;;;;;;5058569;28;20034;-74
2023/08/19 06:06:42;;;;;;;12.20;6.35;;;24.70;89.60;;;;;;4991023;28;20038;-74
2023/08/19 06:09:09;;;;;;;9.18;6.68;;;24.70;89.40;;;;;;4990908;28;20034;-74
2023/08/19 06:11:46;;;;;;;12.30;6.70;;;24.70;89.30;;;;;;4990776;28;20034;-75
2023/08/19 06:14:12;;;;;;;7.50;6.20;;;24.70;89.30;;;;;;4990908;28;20034;-74
2023/08/19 06:16:37;;;;;;;10.85;6.25;;;24.80;89.20;;;;;;4992071;28;20051;-75
2023/08/19 06:19:03;;;;;;;10.40;6.28;;;24.80;89.00;;;;;;4990675;28;20035;-74
2023/08/19 06:21:29;;;;;;;10.32;6.57;;;24.80;89.00;;;;;;5057966;28;20041;-75
2023/08/19 06:23:54;;;;;;;11.73;6.22;;;24.80;89.20;;;;;;4990973;28;20034;-75
2023/08/19 06:26:20;;;;;;;6.97;6.38;;;24.80;89.20;;;;;;4991571;28;20031;-75
2023/08/19 06:28:46;;;;;;;9.48;6.40;;;24.90;89.40;;;;;;4991857;28;20091;-75
2023/08/19 06:31:12;;;;;;;7.63;6.00;;;24.90;89.30;;;;;;4991631;28;20504;-74
2023/08/19 06:33:38;;;;;;;6.53;5.93;;;24.90;89.10;;;;;;4992424;28;20034;-74
2023/08/19 06:36:06;;;;;;;11.80;6.60;;;25.00;88.90;;;;;;4992112;28;20190;-74
2023/08/19 06:38:33;;;;;;;7.03;6.30;;;25.00;88.80;;;;;;4992566;28;20030;-74
2023/08/19 06:41:06;;;;;;;7.53;6.50;;;25.00;88.70;;;;;;4992456;28;20058;-74
2023/08/19 06:43:32;;;;;;;6.97;6.28;;;25.10;88.50;;;;;;4992467;28;20433;-74
2023/08/19 06:46:00;;;;;;;15.65;6.38;;;25.10;88.30;;;;;;4992277;28;20034;-75
2023/08/19 06:48:26;;;;;;;8.60;6.63;;;25.20;88.20;;;;;;4992056;28;20105;-74
2023/08/19 06:50:54;;;;;;;7.82;5.97;;;25.20;88.10;;;;;;4991795;28;20088;-75
2023/08/19 06:53:21;;;;;;;7.57;6.15;;;25.20;88.00;;;;;;4992291;28;20045;-74
2023/08/19 06:56:09;;;;;;;8.80;6.20;;;25.30;88.00;;;;;;4992306;28;20066;-74
2023/08/19 06:58:43;;;;;;;6.57;5.90;;;25.30;87.90;;;;;;4997977;28;20073;-75
2023/08/19 07:01:19;;;;;;;6.65;6.05;;;25.40;87.80;;;;;;4992098;28;20043;-75
2023/08/19 07:03:46;;;;;;;6.30;5.70;;;25.40;87.50;;;;;;4992256;28;20395;-74
2023/08/19 07:06:16;;;;;;;8.20;6.03;;;25.40;87.10;;;;;;4991956;28;20030;-74
2023/08/19 07:08:45;;;;;;;6.43;5.88;;;25.40;86.90;;;;;;4992039;28;20042;-74
2023/08/19 07:11:10;;;;;;;8.80;6.00;;;25.40;86.70;;;;;;4991907;28;20030;-76
2023/08/19 07:13:37;;;;;;;6.90;6.30;;;25.40;86.60;;;;;;4991890;28;20046;-74
2023/08/19 07:16:04;;;;;;;8.15;5.97;;;25.50;86.40;;;;;;4991547;28;20049;-75
2023/08/19 07:18:53;;;;;;;8.60;5.63;;;25.50;86.10;;;;;;4991907;28;20407;-74
2023/08/19 07:21:23;;;;;;;7.38;5.90;;;25.50;85.80;;;;;;4991614;28;20499;-74
2023/08/19 07:23:49;;;;;;;5.88;5.38;;;25.60;85.70;;;;;;4991644;28;20052;-74
2023/08/19 07:26:18;;;;;;;7.90;6.10;;;25.60;85.70;;;;;;4991994;28;20387;-75
2023/08/19 07:28:44;;;;;;;6.90;6.22;;;25.70;85.70;;;;;;4991574;28;20034;-74
2023/08/19 07:31:11;;;;;;;6.20;5.60;;;25.70;85.60;;;;;;4991559;28;20496;-74
2023/08/19 07:33:37;;;;;;;10.38;6.38;;;25.70;85.70;;;;;;4991630;28;20039;-74
2023/08/19 07:36:03;;;;;;;9.90;5.88;;;25.70;85.80;;;;;;4991037;28;20198;-74
2023/08/19 07:38:29;;;;;;;6.68;5.78;;;25.80;85.80;;;;;;4991637;28;20030;-74
2023/08/19 07:40:54;;;;;;;6.68;6.03;;;25.80;85.70;;;;;;4991381;28;20038;-75
2023/08/19 07:43:20;;;;;;;9.00;6.15;;;25.80;85.60;;;;;;4991536;28;20031;-74
2023/08/19 07:45:46;;;;;;;8.07;5.78;;;25.90;85.70;;;;;;5058570;28;20031;-75
2023/08/19 07:48:12;;;;;;;10.88;5.82;;;25.90;85.80;;;;;;4990987;28;20125;-74
2023/08/19 07:50:38;;;;;;;7.95;6.22;;;26.00;85.60;;;;;;4991101;28;20026;-75
2023/08/19 07:53:03;;;;;;;10.43;6.00;;;26.00;85.30;;;;;;4991268;28;20125;-74
2023/08/19 07:55:29;;;;;;;8.88;5.97;;;26.10;85.20;;;;;;4991312;28;20384;-74
2023/08/19 07:57:55;;;;;;;6.43;5.60;;;26.10;85.10;;;;;;4991203;28;20095;-74
2023/08/19 08:00:21;;;;;;;9.00;5.50;;;26.20;85.20;;;;;;4991098;28;20031;-74
2023/08/19 08:02:47;;;;;;;7.13;5.82;;;26.20;84.90;;;;;;4991130;28;20022;-74
2023/08/19 08:05:12;;;;;;;6.45;5.75;;;26.20;84.50;;;;;;4991066;28;20377;-74
2023/08/19 08:07:38;;;;;;;7.07;6.00;;;26.20;84.20;;;;;;4990661;28;20077;-74
2023/08/19 08:10:04;;;;;;;11.00;6.05;;;26.30;84.10;;;;;;4991063;28;20046;-74
2023/08/19 08:12:31;;;;;;;7.88;5.32;;;26.40;84.30;;;;;;4990879;28;20067;-74
2023/08/19 08:14:59;;;;;;;7.53;5.18;;;26.40;84.10;;;;;;5058025;28;20053;-74
2023/08/19 08:17:25;;;;;;;6.93;5.57;;;26.50;83.60;;;;;;4990846;28;20030;-74
2023/08/19 08:19:51;;;;;;;7.93;5.75;;;26.50;83.40;;;;;;4990556;28;20096;-75
2023/08/19 08:22:17;;;;;;;5.82;5.30;;;26.60;83.20;;;;;;4990826;28;20031;-74
2023/08/19 08:24:43;;;;;;;6.97;5.55;;;26.60;83.30;;;;;;4990852;28;20073;-74
2023/08/19 08:27:09;;;;;;;6.70;5.82;;;26.60;83.40;;;;;;4990771;28;20045;-74
2023/08/19 08:29:35;;;;;;;10.55;5.65;;;26.70;83.30;;;;;;4990651;28;20046;-74
2023/08/19 08:32:01;;;;;;;6.07;5.40;;;26.70;83.00;;;;;;4990797;28;20034;-74
2023/08/19 08:34:26;;;;;;;7.03;5.55;;;26.80;82.60;;;;;;4990635;28;20061;-74
2023/08/19 08:36:52;;;;;;;5.88;5.10;;;26.80;82.70;;;;;;4990532;28;20085;-74
2023/08/19 08:39:18;;;;;;;6.70;5.75;;;26.90;82.60;;;;;;4990911;28;20079;-74
2023/08/19 08:41:45;;;;;;;6.07;5.35;;;26.90;82.30;;;;;;4990634;28;20030;-73
2023/08/19 08:44:11;;;;;;;7.10;5.45;;;27.00;82.30;;;;;;4990349;28;20041;-73
2023/08/19 08:46:39;;;;;;;6.25;5.47;;;27.00;82.30;;;;;;4990574;28;20038;-74
2023/08/19 08:49:05;;;;;;;6.15;5.38;;;27.10;82.40;;;;;;4990460;28;20027;-74
2023/08/19 08:51:31;;;;;;;7.82;5.55;;;27.10;82.10;;;;;;5057815;28;20091;-74
2023/08/19 08:54:00;;;;;;;6.75;4.85;;;27.20;81.80;;;;;;4990099;28;20035;-74
2023/08/19 08:56:26;;;;;;;5.60;5.00;;;27.30;81.30;;;;;;4990302;28;20510;-73
2023/08/19 08:58:52;;;;;;;6.05;5.43;;;27.30;81.10;;;;;;4990517;28;20035;-74
2023/08/19 09:01:22;;;;;;;6.65;5.70;;;27.40;81.30;;;;;;4990605;28;20038;-74
2023/08/19 09:03:51;;;;;;;9.38;5.13;;;27.40;81.30;;;;;;4990528;28;20030;-74
2023/08/19 09:06:17;;;;;;;9.07;5.20;;;27.50;80.80;;;;;;4990028;28;20110;-74
2023/08/19 09:08:52;;;;;;;5.80;5.15;;;27.60;80.40;;;;;;4990325;28;20031;-74
2023/08/19 09:11:25;;;;;;;5.90;5.30;;;27.60;79.80;;;;;;4990386;28;20046;-73
2023/08/19 09:14:09;;;;;;;7.05;5.03;;;27.60;78.80;;;;;;4989958;28;20042;-74
2023/08/19 09:16:35;;;;;;;5.95;5.10;;;27.70;78.20;;;;;;4990162;28;20038;-73
2023/08/19 09:19:00;;;;;;;6.15;5.20;;;27.80;78.50;;;;;;4990231;28;20056;-73
2023/08/19 09:21:26;;;;;;;5.63;4.85;;;27.70;78.10;;;;;;4993429;28;20037;-74
2023/08/19 09:23:52;;;;;;;7.88;5.18;;;27.80;77.90;;;;;;4993690;28;20062;-74
2023/08/19 09:26:18;;;;;;;7.60;4.95;;;27.80;78.00;;;;;;4993495;28;20125;-74
2023/08/19 09:28:44;;;;;;;6.43;4.63;;;27.90;77.90;;;;;;4993746;28;20533;-74
2023/08/19 09:31:20;;;;;;;6.00;4.90;;;27.90;77.30;;;;;;4993617;28;20462;-74
2023/08/19 09:33:48;;;;;;;5.30;4.80;;;28.00;76.10;;;;;;4993188;28;20058;-74
2023/08/19 09:36:13;;;;;;;4.82;4.32;;;28.00;76.10;;;;;;4993079;28;20054;-75
2023/08/19 09:38:41;;;;;;;5.57;4.82;;;28.00;76.20;;;;;;4993406;28;20053;-74
2023/08/19 09:41:07;;;;;;;8.27;5.15;;;28.10;76.50;;;;;;4993169;28;20087;-74
2023/08/19 09:43:33;;;;;;;5.65;4.53;;;28.20;77.20;;;;;;4992984;28;20034;-74
2023/08/19 09:46:00;;;;;;;5.75;4.75;;;28.20;76.40;;;;;;4993067;28;20038;-74
2023/08/19 09:48:26;;;;;;;8.20;4.88;;;28.30;76.00;;;;;;4993146;28;20062;-74
2023/08/19 09:50:52;;;;;;;7.45;4.70;;;28.30;76.20;;;;;;4993046;28;20035;-74
2023/08/19 09:53:18;;;;;;;5.20;4.70;;;28.40;76.30;;;;;;4992836;28;20030;-74
2023/08/19 09:55:46;;;;;;;6.43;4.68;;;28.40;75.50;;;;;;4993031;28;20053;-74
2023/08/19 09:58:12;;;;;;;7.90;5.60;;;28.40;75.40;;;;;;4992914;28;20038;-74
2023/08/19 10:00:38;;;;;;;5.55;4.78;;;28.50;75.30;;;;;;4993031;28;20051;-74
2023/08/19 10:03:05;;;;;;;8.70;5.07;;;28.60;75.40;;;;;;4992915;28;20484;-74
2023/08/19 10:05:37;;;;;;;5.72;4.53;;;28.60;75.10;;;;;;4992814;28;20070;-74
2023/08/19 10:08:19;;;;;;;5.57;5.03;;;28.70;74.90;;;;;;5060237;28;20485;-74
2023/08/19 10:10:46;;;;;;;8.73;4.95;;;28.80;75.30;;;;;;4993180;28;20027;-74
2023/08/19 10:13:13;;;;;;;8.60;5.15;;;28.80;74.80;;;;;;4992636;28;20041;-74
2023/08/19 10:15:41;;;;;;;6.70;4.70;;;28.90;75.10;;;;;;4992489;28;20114;-74
2023/08/19 10:18:19;;;;;;;6.40;4.72;;;28.90;75.30;;;;;;4992436;28;20046;-74
2023/08/19 10:20:50;;;;;;;4.97;4.53;;;28.90;75.20;;;;;;4992494;28;20042;-75
2023/08/19 10:23:17;;;;;;;5.53;4.95;;;29.00;75.30;;;;;;4992569;28;20488;-75
2023/08/19 10:25:44;;;;;;;7.30;4.75;;;29.00;74.70;;;;;;4992401;28;20049;-75
2023/08/19 10:28:12;;;;;;;6.03;5.18;;;29.00;74.30;;;;;;4992358;28;20075;-75
2023/08/19 10:30:38;;;;;;;6.10;4.47;;;29.10;74.20;;;;;;5076431;28;20519;-75
2023/08/19 10:33:24;;;;;;;10.15;4.78;;;29.10;74.30;;;;;;4992274;28;20050;-75
2023/08/19 10:36:03;;;;;;;10.05;4.65;;;29.10;74.40;;;;;;4992472;28;20412;-75
2023/08/19 10:38:45;;;;;;;5.75;4.60;;;29.20;73.80;;;;;;4992105;28;20480;-75
2023/08/19 10:41:17;;;;;;;;;;;29.20;73.90;;;;;;4992719;28;20036;-75
2023/08/19 10:43:57;;;;;;;8.15;4.78;;;29.20;73.90;;;;;;4992457;28;19956;-76
2023/08/19 10:46:26;;;;;;;5.45;4.60;;;29.20;73.80;;;;;;4992369;28;20042;-76
2023/08/19 10:48:52;;;;;;;7.32;4.63;;;29.20;73.80;;;;;;4992210;28;20041;-75
2023/08/19 10:51:18;;;;;;;6.57;4.40;;;29.20;74.00;;;;;;4992391;28;20038;-75
2023/08/19 10:54:06;;;;;;;5.00;4.50;;;29.30;74.30;;;;;;4992495;28;20118;-75
2023/08/19 10:56:32;;;;;;;6.60;4.70;;;29.40;74.30;;;;;;4992158;28;20046;-75
2023/08/19 10:58:59;;;;;;;6.03;4.55;;;29.40;73.50;;;;;;4992174;28;20037;-75
2023/08/19 11:01:30;;;;;;;5.80;4.63;;;29.40;72.80;;;;;;4992239;28;20151;-75
2023/08/19 11:03:58;;;;;;;9.10;4.88;;;29.50;71.70;;;;;;4992028;28;20026;-75
2023/08/19 11:06:31;;;;;;;7.07;4.63;;;29.50;72.10;;;;;;4991868;28;20034;-75
2023/08/19 11:09:00;;;;;;;6.35;4.22;;;29.50;72.00;;;;;;4991776;28;20044;-76
2023/08/19 11:11:26;;;;;;;13.10;4.50;;;29.50;71.80;;;;;;4991846;28;20031;-75
2023/08/19 11:13:53;;;;;;;7.93;4.35;;;29.60;72.20;;;;;;4991940;28;20035;-76
2023/08/19 11:16:23;;;;;;;7.95;4.50;;;29.60;72.00;;;;;;4991682;28;20129;-75
2023/08/19 11:18:52;;;;;;;9.60;4.97;;;29.70;71.20;;;;;;4991849;28;20113;-75
2023/08/19 11:21:19;;;;;;;6.10;4.30;;;29.70;71.40;;;;;;4991769;28;20031;-76
2023/08/19 11:23:45;;;;;;;7.05;4.55;;;29.80;71.10;;;;;;4992134;28;20472;-75
2023/08/19 11:26:12;;;;;;;4.80;4.28;;;29.90;70.20;;;;;;4991748;28;20112;-75
2023/08/19 11:28:39;;;;;;;10.77;4.57;;;29.90;69.30;;;;;;4991831;28;20034;-75
2023/08/19 11:31:04;;;;;;;4.95;4.00;;;29.90;69.30;;;;;;4991801;28;20038;-73
2023/08/19 11:33:33;;;;;;;9.70;4.45;;;29.90;69.00;;;;;;5058598;28;20034;-73
2023/08/19 11:36:00;;;;;;;4.47;4.05;;;29.90;69.60;;;;;;4991448;28;20050;-72
2023/08/19 11:38:25;;;;;;;4.95;4.40;;;30.00;69.50;;;;;;4991770;28;20072;-74
2023/08/19 11:40:54;;;;;;;4.30;3.90;;;30.00;69.00;;;;;;4991405;28;20042;-73
2023/08/19 11:43:23;;;;;;;7.30;4.10;;;30.00;69.00;;;;;;4990641;28;20060;-73
2023/08/19 11:45:49;;;;;;;4.55;3.90;;;30.10;68.30;;;;;;4991820;28;20034;-73
2023/08/19 11:48:16;;;;;;;5.60;4.13;;;30.10;67.70;;;;;;4991486;28;20046;-74
2023/08/19 11:50:49;;;;;;;5.20;4.18;;;30.10;67.10;;;;;;4991524;28;20497;-74
2023/08/19 11:53:27;;;;;;;5.13;4.30;;;30.10;67.40;;;;;;4991310;28;20366;-73
2023/08/19 11:55:57;;;;;;;4.22;3.80;;;30.20;67.60;;;;;;4991315;28;20124;-73
2023/08/19 11:58:50;;;;;;;4.87;4.20;;;30.20;68.50;;;;;;4991435;28;20045;-74
2023/08/19 12:01:20;;;;;;;5.10;3.90;;;30.30;68.90;;;;;;4996072;28;20026;-74
2023/08/19 12:03:48;;;;;;;8.15;4.57;;;30.30;68.10;;;;;;4991290;28;20026;-74
2023/08/19 12:06:14;;;;;;;6.82;4.18;;;30.40;67.90;;;;;;4991123;28;20590;-74
2023/08/19 12:08:44;;;;;;;11.63;4.50;;;30.40;67.80;;;;;;4991012;28;20049;-75
2023/08/19 12:11:14;;;;;;;5.43;4.30;;;30.50;67.50;;;;;;4990766;28;20518;-73
2023/08/19 12:13:40;;;;;;;8.45;4.72;;;30.50;67.40;;;;;;5075127;28;20049;-74
2023/08/19 12:16:07;;;;;;;7.57;3.95;;;30.50;66.80;;;;;;4990685;28;20042;-73
2023/08/19 12:18:34;;;;;;;7.20;4.28;;;30.50;66.70;;;;;;4990875;28;20080;-74
2023/08/19 12:21:03;;;;;;;5.82;4.32;;;30.60;66.80;;;;;;4990743;28;20031;-74
2023/08/19 12:23:30;;;;;;;4.65;4.18;;;30.60;67.10;;;;;;4990749;28;20034;-73
2023/08/19 12:26:00;;;;;;;5.93;3.97;;;30.70;67.00;;;;;;4988435;28;20068;-74
2023/08/19 12:28:28;;;;;;;9.38;4.07;;;30.70;67.70;;;;;;4988073;28;20393;-74
2023/08/19 12:30:55;;;;;;;7.55;4.30;;;30.70;66.30;;;;;;4989806;28;20065;-74
2023/08/19 12:33:21;;;;;;;7.93;3.97;;;30.80;65.60;;;;;;4990791;28;20415;-73
2023/08/19 12:35:51;;;;;;;6.10;4.18;;;30.80;65.90;;;;;;4990661;28;20054;-73
2023/08/19 12:38:19;;;;;;;4.85;3.85;;;30.80;65.60;;;;;;4990578;28;20114;-74
2023/08/19 12:40:45;;;;;;;6.30;3.92;;;30.80;64.40;;;;;;4990819;28;20065;-73
2023/08/19 12:43:12;;;;;;;5.28;4.35;;;30.80;64.40;;;;;;4990747;28;20105;-73
2023/08/19 12:45:39;;;;;;;6.18;4.45;;;30.80;65.20;;;;;;4990598;28;20038;-74
2023/08/19 12:48:07;;;;;;;6.47;4.30;;;30.80;66.50;;;;;;4989696;28;20030;-73